createdAt,value
2019-04-21T13:20:30.044Z,27.50
2019-04-21T13:21:30.065Z,28.10
2019-04-21T13:23:03.883Z,28.72
2019-04-21T13:24:03.332Z,29.28
2019-04-21T13:25:57.736Z,29.38
2019-04-21T13:26:59.859Z,29.87
2019-04-21T13:27:58.669Z,30.27
2019-04-21T13:28:58.431Z,29.99
2019-04-21T13:29:57.680Z,30.26
2019-04-21T13:30:58.221Z,30.26
2019-04-21T13:31:58.423Z,30.37
2019-04-21T13:32:58.910Z,30.56
2019-04-21T13:33:57.975Z,30.12
2019-04-21T13:34:58.990Z,29.77
2019-04-21T13:35:59.129Z,29.77
2019-04-21T13:36:57.683Z,30.07
2019-04-21T13:37:58.375Z,30.11
2019-04-21T13:39:27.614Z,30.15
2019-04-21T13:40:21.090Z,30.31
2019-04-21T13:41:13.115Z,30.54
2019-04-21T13:42:09.840Z,30.80
2019-04-21T13:43:02.130Z,30.64
2019-04-21T13:43:59.104Z,30.26
2019-04-21T13:45:00.562Z,29.29
2019-04-21T13:45:57.673Z,29.53
2019-04-21T13:46:58.748Z,30.19
2019-04-21T13:47:58.733Z,30.57
2019-04-21T13:48:59.026Z,30.62
2019-04-21T13:49:59.822Z,30.83
2019-04-21T13:50:57.670Z,30.47
2019-04-21T13:51:57.669Z,30.84
2019-04-21T13:52:58.668Z,30.30
2019-04-21T13:53:57.745Z,30.46
2019-04-21T13:54:57.942Z,30.49
2019-04-21T13:55:58.494Z,30.34
2019-04-21T13:56:58.631Z,29.97
2019-04-21T13:57:58.830Z,29.72
2019-04-21T13:58:58.233Z,30.16
2019-04-21T13:59:57.659Z,30.12
2019-04-21T14:00:58.001Z,29.96
2019-04-21T14:01:58.383Z,30.40
2019-04-21T14:02:58.743Z,30.29
2019-04-21T14:03:59.714Z,30.38
2019-04-21T14:04:59.059Z,30.31
2019-04-21T14:05:58.317Z,29.77
2019-04-21T14:06:58.305Z,29.41
2019-04-21T14:07:58.020Z,29.38
2019-04-21T14:08:58.928Z,29.37
2019-04-21T14:10:02.544Z,29.10
2019-04-21T14:10:57.655Z,29.13
2019-04-21T14:11:59.063Z,29.13
2019-04-21T14:12:58.402Z,28.43
2019-04-21T14:13:58.586Z,28.77
2019-04-21T14:14:57.675Z,28.96
2019-04-21T14:15:57.930Z,29.13
2019-04-21T14:16:58.330Z,28.95
2019-04-21T14:17:58.386Z,28.66
2019-04-21T14:18:57.649Z,28.62
2019-04-21T14:19:57.653Z,28.77
2019-04-21T14:20:57.662Z,28.95
2019-04-21T14:21:57.645Z,28.51
2019-04-21T14:23:10.307Z,28.53
2019-04-21T14:23:58.141Z,28.41
2019-04-21T14:24:57.650Z,27.99
2019-04-21T14:25:57.645Z,27.89
2019-04-21T14:26:58.412Z,27.96
2019-04-21T14:27:57.922Z,27.21
2019-04-21T14:28:58.792Z,27.19
2019-04-21T14:29:57.733Z,27.19
2019-04-21T14:30:58.644Z,27.26
2019-04-21T14:31:58.080Z,27.17
2019-04-21T14:32:58.150Z,26.81
2019-04-21T14:33:58.301Z,27.09
2019-04-21T14:34:58.761Z,27.26
2019-04-21T14:35:58.904Z,27.24
2019-04-21T14:36:58.968Z,27.23
2019-04-21T14:37:58.458Z,26.94
2019-04-21T14:38:58.720Z,27.06
2019-04-21T14:40:04.008Z,27.06
2019-04-21T14:40:57.618Z,27.28
2019-04-21T14:41:58.111Z,27.14
2019-04-21T14:42:58.352Z,27.38
